createdAt,value
2023-01-29T00:02:10.350Z,0.00
2023-01-29T00:04:37.489Z,0.00
2023-01-29T00:07:04.438Z,0.00
2023-01-29T00:09:32.136Z,0.00
2023-01-29T00:11:59.316Z,-0.10
2023-01-29T00:14:27.575Z,-0.10
2023-01-29T00:16:54.910Z,-0.10
2023-01-29T00:19:22.002Z,-0.10
2023-01-29T00:21:49.058Z,-0.20
2023-01-29T00:24:16.345Z,-0.20
2023-01-29T00:26:43.501Z,-0.30
2023-01-29T00:29:11.156Z,-0.30
2023-01-29T00:31:38.353Z,-0.30
2023-01-29T00:34:07.557Z,-0.30
2023-01-29T00:36:34.710Z,-0.30
2023-01-29T00:39:02.879Z,-0.30
2023-01-29T00:41:49.805Z,-0.30
2023-01-29T00:44:35.593Z,-0.40
2023-01-29T00:47:03.000Z,-0.40
2023-01-29T00:49:32.996Z,-0.40
2023-01-29T00:52:18.664Z,-0.40
2023-01-29T00:54:45.852Z,-0.40
2023-01-29T00:57:13.041Z,-0.50
2023-01-29T00:59:39.997Z,-0.50
2023-01-29T01:02:27.369Z,-0.50
2023-01-29T01:04:54.570Z,-0.60
2023-01-29T01:07:21.852Z,-0.60
2023-01-29T01:10:07.409Z,-0.60
2023-01-29T01:12:34.653Z,-0.60
2023-01-29T01:15:01.812Z,-0.60
2023-01-29T01:17:28.875Z,-0.60
2023-01-29T01:19:56.125Z,-0.70
2023-01-29T01:22:23.353Z,-0.60
2023-01-29T01:24:50.513Z,-0.70
2023-01-29T01:27:19.758Z,-0.70
2023-01-29T01:29:47.194Z,-0.70
2023-01-29T01:32:14.443Z,-0.70
2023-01-29T01:34:41.738Z,-0.70
2023-01-29T01:37:08.964Z,-0.80
2023-01-29T01:39:36.190Z,-0.80
2023-01-29T01:42:03.431Z,-0.80
2023-01-29T01:44:52.298Z,-0.80
2023-01-29T01:47:31.636Z,-0.80
2023-01-29T01:50:08.121Z,-0.80
2023-01-29T01:52:36.714Z,-0.80
2023-01-29T01:55:04.240Z,-0.80
2023-01-29T01:57:31.440Z,-0.80
2023-01-29T02:00:00.850Z,-0.90
2023-01-29T02:02:46.783Z,-0.90
2023-01-29T02:05:32.394Z,-0.90
2023-01-29T02:08:18.282Z,-0.90
2023-01-29T02:10:46.639Z,-0.90
2023-01-29T02:13:16.363Z,-0.90
2023-01-29T02:15:46.976Z,-0.90
2023-01-29T02:18:15.151Z,-1.00
2023-01-29T02:20:49.878Z,-1.00
2023-01-29T02:23:32.203Z,-1.00
2023-01-29T02:26:10.968Z,-1.00
2023-01-29T02:28:45.805Z,-1.00
2023-01-29T02:31:41.573Z,-1.00
2023-01-29T02:34:27.735Z,-1.00
2023-01-29T02:36:57.550Z,-1.00
2023-01-29T02:39:33.020Z,-1.00
2023-01-29T02:42:25.556Z,-1.10
2023-01-29T02:45:01.139Z,-1.00
2023-01-29T02:47:34.101Z,-1.00
2023-01-29T02:50:06.315Z,-0.90
2023-01-29T02:52:38.065Z,-0.80
2023-01-29T02:55:11.012Z,-0.70
2023-01-29T02:57:41.103Z,-0.70
2023-01-29T03:00:12.757Z,-0.60
2023-01-29T03:03:03.901Z,-0.60
2023-01-29T03:05:46.343Z,-0.50
2023-01-29T03:08:16.226Z,-0.50
2023-01-29T03:11:02.271Z,-0.40
2023-01-29T03:14:13.265Z,-0.40
2023-01-29T03:16:50.704Z,-0.40
2023-01-29T03:19:26.451Z,-0.40
2023-01-29T03:21:59.690Z,-0.30
2023-01-29T03:25:14.709Z,-0.30
2023-01-29T03:28:08.716Z,-0.30
2023-01-29T03:31:11.868Z,-0.30
2023-01-29T03:34:05.591Z,-0.30
2023-01-29T03:37:03.769Z,-0.30
2023-01-29T03:39:31.410Z,-0.30
2023-01-29T03:42:12.920Z,-0.20
2023-01-29T03:44:48.972Z,-0.20
2023-01-29T03:47:25.427Z,-0.20
2023-01-29T03:50:11.308Z,-0.20
2023-01-29T03:52:43.459Z,-0.10
2023-01-29T03:55:36.431Z,-0.10
2023-01-29T03:58:06.570Z,-0.10
2023-01-29T04:00:39.115Z,-0.10
2023-01-29T04:03:25.175Z,0.00
2023-01-29T04:06:05.573Z,0.00
2023-01-29T04:08:37.130Z,0.00
2023-01-29T04:11:09.727Z,-0.10
2023-01-29T04:13:37.010Z,0.00
2023-01-29T04:16:05.490Z,0.00
2023-01-29T04:18:59.223Z,0.00
2023-01-29T04:21:32.090Z,0.00
2023-01-29T04:24:00.019Z,0.00
2023-01-29T04:26:50.066Z,0.00
2023-01-29T04:29:38.206Z,0.00
2023-01-29T04:32:19.809Z,0.00
2023-01-29T04:35:10.723Z,0.00
2023-01-29T04:37:50.951Z,0.00
2023-01-29T04:40:23.467Z,0.00
2023-01-29T04:43:05.215Z,0.00
2023-01-29T04:45:50.507Z,0.00
2023-01-29T04:48:51.908Z,0.00
2023-01-29T04:51:43.496Z,0.10
2023-01-29T04:54:19.187Z,0.00
2023-01-29T04:57:07.157Z,0.00
2023-01-29T04:59:36.970Z,0.10
2023-01-29T05:02:04.061Z,0.10
2023-01-29T05:04:32.462Z,0.10
2023-01-29T05:07:01.620Z,0.00
2023-01-29T05:09:28.775Z,0.00
2023-01-29T05:11:55.759Z,0.00
2023-01-29T05:14:22.898Z,0.00
2023-01-29T05:16:51.438Z,0.00
2023-01-29T05:19:18.695Z,0.00
2023-01-29T05:21:47.364Z,0.00
2023-01-29T05:24:19.718Z,0.00
2023-01-29T05:27:06.231Z,0.00
2023-01-29T05:29:33.443Z,0.10
2023-01-29T05:32:00.748Z,0.10
2023-01-29T05:34:27.984Z,0.10
2023-01-29T05:36:55.175Z,0.10
2023-01-29T05:39:22.413Z,0.10
2023-01-29T05:41:49.556Z,0.10
2023-01-29T05:44:16.874Z,0.20
2023-01-29T05:46:44.789Z,0.20
2023-01-29T05:49:12.149Z,0.20
2023-01-29T05:51:39.334Z,0.20
2023-01-29T05:54:06.247Z,0.20
2023-01-29T05:56:33.386Z,0.20
2023-01-29T05:59:00.325Z,0.20
2023-01-29T06:01:27.486Z,0.20
2023-01-29T06:03:54.597Z,0.20
2023-01-29T06:06:21.685Z,0.20
2023-01-29T06:08:48.931Z,0.20
2023-01-29T06:11:18.327Z,0.20
2023-01-29T06:13:45.817Z,0.30
2023-01-29T06:16:13.609Z,0.30
2023-01-29T06:18:41.321Z,0.30
2023-01-29T06:21:10.021Z,0.30
2023-01-29T06:23:37.288Z,0.30
2023-01-29T06:26:05.941Z,0.30
2023-01-29T06:28:33.053Z,0.30
2023-01-29T06:31:11.399Z,0.20
2023-01-29T06:33:43.489Z,0.20
2023-01-29T06:36:10.448Z,0.10
2023-01-29T06:38:37.569Z,0.10
2023-01-29T06:41:10.791Z,0.10
2023-01-29T06:43:38.740Z,0.10
2023-01-29T06:46:07.300Z,0.10
2023-01-29T06:48:34.773Z,0.10
2023-01-29T06:51:03.489Z,0.10
2023-01-29T06:53:31.082Z,0.10
2023-01-29T06:55:58.191Z,0.10
2023-01-29T06:58:25.263Z,0.10
2023-01-29T07:00:52.807Z,0.20
2023-01-29T07:03:20.081Z,0.20
2023-01-29T07:05:53.946Z,0.20
2023-01-29T07:08:22.840Z,0.30
2023-01-29T07:10:50.260Z,0.30
2023-01-29T07:13:17.575Z,0.30
2023-01-29T07:15:44.705Z,0.30
2023-01-29T07:18:14.412Z,0.30
2023-01-29T07:20:41.910Z,0.40
2023-01-29T07:23:15.487Z,0.40
2023-01-29T07:25:42.715Z,0.40
2023-01-29T07:28:09.915Z,0.40
2023-01-29T07:30:37.123Z,0.40
2023-01-29T07:33:07.153Z,0.50
2023-01-29T07:35:41.179Z,0.50
2023-01-29T07:38:09.024Z,0.50
2023-01-29T07:40:36.386Z,0.50
2023-01-29T07:43:05.316Z,0.50
2023-01-29T07:45:34.913Z,0.60
2023-01-29T07:48:02.052Z,0.60
2023-01-29T07:50:29.106Z,0.60
2023-01-29T07:52:56.326Z,0.70
2023-01-29T07:55:23.539Z,0.60
2023-01-29T07:57:57.672Z,0.70
2023-01-29T08:00:24.873Z,0.70
2023-01-29T08:02:51.887Z,0.60
2023-01-29T08:05:19.162Z,0.70
2023-01-29T08:07:51.573Z,0.70
2023-01-29T08:10:28.149Z,0.70
2023-01-29T08:12:56.976Z,0.70
2023-01-29T08:15:24.326Z,0.70
2023-01-29T08:20:39.147Z,0.70
2023-01-29T08:23:06.877Z,0.70
2023-01-29T08:25:34.421Z,0.70
2023-01-29T08:28:01.733Z,0.80
2023-01-29T08:30:29.880Z,0.80
2023-01-29T08:32:57.035Z,0.80
2023-01-29T08:35:24.487Z,0.80
2023-01-29T08:37:59.554Z,0.80
2023-01-29T08:40:27.764Z,0.90
2023-01-29T08:43:02.021Z,0.90
2023-01-29T08:45:30.642Z,0.90
2023-01-29T08:47:57.714Z,0.90
2023-01-29T08:50:24.816Z,0.90
2023-01-29T08:52:51.959Z,0.90
2023-01-29T08:55:19.213Z,1.00
2023-01-29T08:57:46.480Z,1.00
2023-01-29T09:00:13.767Z,1.00
2023-01-29T09:02:40.908Z,1.10
2023-01-29T09:05:08.090Z,1.10
2023-01-29T09:07:35.187Z,1.20
2023-01-29T09:10:02.342Z,1.20
2023-01-29T09:12:30.511Z,1.30
2023-01-29T09:14:57.541Z,1.20
2023-01-29T09:17:24.667Z,1.30
2023-01-29T09:19:53.116Z,1.40
2023-01-29T09:22:20.773Z,1.30
2023-01-29T09:24:47.897Z,1.40
2023-01-29T09:27:14.844Z,1.40
2023-01-29T09:29:41.959Z,1.40
2023-01-29T09:32:08.963Z,1.40
2023-01-29T09:34:36.105Z,1.40
2023-01-29T09:37:03.241Z,1.40
2023-01-29T09:39:30.560Z,1.40
2023-01-29T09:42:06.410Z,1.30
2023-01-29T09:44:54.570Z,1.40
2023-01-29T09:47:22.873Z,1.40
2023-01-29T09:49:58.275Z,1.30
2023-01-29T09:52:30.616Z,1.30
2023-01-29T09:55:14.890Z,1.30
2023-01-29T09:57:52.756Z,1.40
2023-01-29T10:00:32.590Z,1.30
2023-01-29T10:03:24.309Z,1.30
2023-01-29T10:06:20.620Z,1.40
2023-01-29T10:08:47.698Z,1.40
2023-01-29T10:11:17.674Z,1.40
2023-01-29T10:14:01.822Z,1.40
2023-01-29T10:16:43.975Z,1.40
2023-01-29T10:19:35.494Z,1.40
2023-01-29T10:22:23.345Z,1.40
2023-01-29T10:25:13.644Z,1.30
2023-01-29T10:27:41.910Z,1.30
2023-01-29T10:30:38.303Z,1.30
2023-01-29T10:33:06.765Z,1.40
2023-01-29T10:35:44.667Z,1.40
2023-01-29T10:38:33.024Z,1.50
2023-01-29T10:41:11.408Z,1.50
2023-01-29T10:44:06.135Z,1.50
2023-01-29T10:46:42.599Z,1.50
2023-01-29T10:49:34.175Z,1.50
2023-01-29T10:52:01.170Z,1.60
2023-01-29T10:54:34.352Z,1.70
2023-01-29T10:57:43.413Z,1.70
2023-01-29T11:00:17.909Z,1.70
2023-01-29T11:02:46.489Z,1.60
2023-01-29T11:05:35.382Z,1.60
2023-01-29T11:08:30.977Z,1.60
2023-01-29T11:11:08.729Z,1.60
2023-01-29T11:14:00.492Z,1.60
2023-01-29T11:16:28.577Z,1.60
2023-01-29T11:19:00.044Z,1.60
2023-01-29T11:21:28.629Z,1.60
2023-01-29T11:24:17.103Z,1.60
2023-01-29T11:26:45.875Z,1.70
2023-01-29T11:29:43.228Z,1.70
2023-01-29T11:32:34.314Z,1.90
2023-01-29T11:35:06.762Z,1.90
2023-01-29T11:37:34.985Z,2.00
2023-01-29T11:40:02.253Z,2.00
2023-01-29T11:42:31.141Z,2.10
2023-01-29T11:44:58.441Z,2.10
2023-01-29T11:47:28.870Z,2.10
2023-01-29T11:49:57.317Z,2.10
2023-01-29T11:52:39.009Z,2.20
2023-01-29T11:55:07.656Z,2.20
2023-01-29T11:57:36.706Z,2.20
2023-01-29T12:00:07.243Z,2.20
2023-01-29T12:02:44.300Z,2.30
2023-01-29T12:05:19.513Z,2.20
2023-01-29T12:07:50.858Z,2.30
2023-01-29T12:10:31.889Z,2.20
2023-01-29T12:13:25.207Z,2.30
2023-01-29T12:16:04.797Z,2.30
2023-01-29T12:18:44.303Z,2.40
2023-01-29T12:21:18.485Z,2.40
2023-01-29T12:23:51.092Z,2.40
2023-01-29T12:26:36.308Z,2.50
2023-01-29T12:29:22.327Z,2.60
2023-01-29T12:32:12.743Z,2.60
2023-01-29T12:34:56.677Z,2.70
2023-01-29T12:37:47.133Z,2.60
2023-01-29T12:40:18.475Z,2.60
2023-01-29T12:42:49.987Z,2.50
2023-01-29T12:45:19.206Z,2.50
2023-01-29T12:47:51.072Z,2.50
2023-01-29T12:50:34.392Z,2.50
2023-01-29T12:53:28.809Z,2.50
2023-01-29T12:55:59.483Z,2.60
2023-01-29T12:58:48.610Z,2.50
2023-01-29T13:01:25.632Z,2.50
2023-01-29T13:04:00.227Z,2.40
2023-01-29T13:06:30.708Z,2.40
2023-01-29T13:09:17.661Z,2.40
2023-01-29T13:11:52.760Z,2.40
2023-01-29T13:14:29.003Z,2.40
2023-01-29T13:17:08.518Z,2.40
2023-01-29T13:19:38.587Z,2.40
2023-01-29T13:22:06.959Z,2.40
2023-01-29T13:24:41.709Z,2.40
2023-01-29T13:27:25.461Z,2.40
2023-01-29T13:29:53.265Z,2.40
2023-01-29T13:32:25.562Z,2.40
2023-01-29T13:34:54.632Z,2.40
2023-01-29T13:37:32.436Z,2.50
2023-01-29T13:40:00.464Z,2.50
2023-01-29T13:42:42.933Z,2.50
2023-01-29T13:45:17.901Z,2.50
2023-01-29T13:47:45.287Z,2.50
2023-01-29T13:50:33.042Z,2.50
2023-01-29T13:53:02.248Z,2.50
2023-01-29T13:55:36.759Z,2.50
2023-01-29T13:58:05.003Z,2.50
2023-01-29T14:00:35.256Z,2.50
2023-01-29T14:03:04.783Z,2.50
2023-01-29T14:05:31.938Z,2.40
2023-01-29T14:07:59.557Z,2.40
2023-01-29T14:10:30.634Z,2.30
2023-01-29T14:13:03.779Z,2.20
2023-01-29T14:15:34.790Z,2.30
2023-01-29T14:18:21.392Z,2.20
2023-01-29T14:20:48.542Z,2.30
2023-01-29T14:23:23.152Z,2.20
2023-01-29T14:25:50.203Z,2.10
2023-01-29T14:28:21.416Z,2.10
2023-01-29T14:30:49.215Z,2.10
2023-01-29T14:33:36.272Z,2.10
2023-01-29T14:36:13.607Z,2.10
2023-01-29T14:38:41.567Z,2.10
2023-01-29T14:41:26.470Z,2.10
2023-01-29T14:44:31.887Z,2.10
2023-01-29T14:46:58.985Z,2.10
2023-01-29T14:49:44.369Z,2.10
2023-01-29T14:52:11.470Z,2.10
2023-01-29T14:54:40.237Z,2.00
2023-01-29T14:57:11.019Z,2.00
2023-01-29T14:59:44.084Z,2.10
2023-01-29T15:02:20.592Z,2.10
2023-01-29T15:04:51.582Z,2.10
2023-01-29T15:07:29.835Z,2.20
2023-01-29T15:10:36.214Z,2.10
2023-01-29T15:13:36.078Z,2.10
2023-01-29T15:16:06.639Z,2.10
2023-01-29T15:18:37.363Z,2.10
2023-01-29T15:21:11.769Z,2.00
2023-01-29T15:23:39.097Z,2.10
2023-01-29T15:26:12.050Z,2.10
2023-01-29T15:28:39.260Z,2.10
2023-01-29T15:31:12.077Z,2.10
2023-01-29T15:33:39.320Z,2.10
2023-01-29T15:36:07.815Z,2.10
2023-01-29T15:38:35.653Z,2.00
2023-01-29T15:41:04.471Z,2.00
2023-01-29T15:43:35.407Z,2.00
2023-01-29T15:46:05.078Z,2.00
2023-01-29T15:48:40.854Z,2.00
2023-01-29T15:51:08.912Z,2.00
2023-01-29T15:53:43.492Z,2.00
2023-01-29T15:56:11.195Z,2.00
2023-01-29T15:58:38.258Z,2.00
2023-01-29T16:01:05.615Z,2.00
2023-01-29T16:03:33.423Z,1.90
2023-01-29T16:06:00.981Z,1.90
2023-01-29T16:08:28.117Z,1.90
2023-01-29T16:10:58.513Z,1.80
2023-01-29T16:13:44.911Z,1.80
2023-01-29T16:16:26.960Z,1.80
2023-01-29T16:19:00.477Z,1.80
2023-01-29T16:21:38.657Z,1.80
2023-01-29T16:24:09.725Z,1.80
2023-01-29T16:26:38.300Z,1.80
2023-01-29T16:29:29.696Z,1.80
2023-01-29T16:32:00.710Z,1.80
2023-01-29T16:34:31.644Z,1.80
2023-01-29T16:36:58.925Z,1.80
2023-01-29T16:39:30.648Z,1.80
2023-01-29T16:42:13.203Z,1.80
2023-01-29T16:44:40.511Z,1.80
2023-01-29T16:47:12.932Z,1.70
2023-01-29T16:49:43.371Z,1.70
2023-01-29T16:52:18.785Z,1.70
2023-01-29T16:54:45.811Z,1.70
2023-01-29T16:57:16.519Z,1.70
2023-01-29T16:59:43.619Z,1.70
2023-01-29T17:02:19.336Z,1.70
2023-01-29T17:04:46.810Z,1.60
2023-01-29T17:07:18.510Z,1.60
2023-01-29T17:09:45.543Z,1.60
2023-01-29T17:12:17.424Z,1.60
2023-01-29T17:14:56.931Z,1.70
2023-01-29T17:17:30.411Z,1.70
2023-01-29T17:20:18.351Z,1.70
2023-01-29T17:22:47.055Z,1.70
2023-01-29T17:25:14.271Z,1.70
2023-01-29T17:27:42.257Z,1.70
2023-01-29T17:30:16.196Z,1.60
2023-01-29T17:32:45.037Z,1.60
2023-01-29T17:35:15.490Z,1.60
2023-01-29T17:37:42.750Z,1.60
2023-01-29T17:40:22.066Z,1.60
2023-01-29T17:42:49.219Z,1.70
2023-01-29T17:45:16.400Z,1.60
2023-01-29T17:47:43.684Z,1.60
2023-01-29T17:50:23.481Z,1.60
2023-01-29T17:52:50.869Z,1.60
2023-01-29T17:55:18.208Z,1.60
2023-01-29T17:57:45.545Z,1.60
2023-01-29T18:00:22.614Z,1.60
2023-01-29T18:02:49.974Z,1.60
2023-01-29T18:05:17.657Z,1.50
2023-01-29T18:07:46.590Z,1.60
2023-01-29T18:10:18.237Z,1.60
2023-01-29T18:12:45.326Z,1.60
2023-01-29T18:15:12.350Z,1.60
2023-01-29T18:17:40.045Z,1.60
2023-01-29T18:20:21.846Z,1.60
2023-01-29T18:22:48.936Z,1.60
2023-01-29T18:25:16.581Z,1.60
2023-01-29T18:27:43.903Z,1.60
2023-01-29T18:30:11.264Z,1.60
2023-01-29T18:32:38.490Z,1.50
2023-01-29T18:35:06.690Z,1.50
2023-01-29T18:37:34.149Z,1.50
2023-01-29T18:40:01.299Z,1.50
2023-01-29T18:42:30.723Z,1.50
2023-01-29T18:44:57.845Z,1.50
2023-01-29T18:47:24.796Z,1.40
2023-01-29T18:49:52.238Z,1.40
2023-01-29T18:52:19.411Z,1.40
2023-01-29T18:54:46.462Z,1.50
2023-01-29T18:57:14.713Z,1.50
2023-01-29T19:00:00.624Z,1.40
2023-01-29T19:02:27.915Z,1.40
2023-01-29T19:04:54.876Z,1.40
2023-01-29T19:07:21.986Z,1.40
2023-01-29T19:09:50.446Z,1.40
2023-01-29T19:12:17.548Z,1.40
2023-01-29T19:14:44.625Z,1.30
2023-01-29T19:17:11.819Z,1.30
2023-01-29T19:19:38.974Z,1.30
2023-01-29T19:22:05.990Z,1.30
2023-01-29T19:24:38.912Z,1.30
2023-01-29T19:27:09.095Z,1.20
2023-01-29T19:29:36.202Z,1.20
2023-01-29T19:32:03.199Z,1.20
2023-01-29T19:34:30.293Z,1.20
2023-01-29T19:36:57.271Z,1.10
2023-01-29T19:39:24.474Z,1.20
2023-01-29T19:41:51.517Z,1.20
2023-01-29T19:44:18.498Z,1.20
2023-01-29T19:46:46.874Z,1.20
2023-01-29T19:49:14.105Z,1.20
2023-01-29T19:51:41.531Z,1.30
2023-01-29T19:54:09.451Z,1.30
2023-01-29T19:56:36.577Z,1.30
2023-01-29T19:59:05.048Z,1.30
2023-01-29T20:01:32.344Z,1.30
2023-01-29T20:03:59.550Z,1.30
2023-01-29T20:06:27.930Z,1.30
2023-01-29T20:08:55.060Z,1.40
2023-01-29T20:11:22.519Z,1.40
2023-01-29T20:13:50.664Z,1.40
2023-01-29T20:16:17.880Z,1.30
2023-01-29T20:18:45.194Z,1.30
2023-01-29T20:21:13.175Z,1.40
2023-01-29T20:23:40.379Z,1.40
2023-01-29T20:26:08.470Z,1.30
2023-01-29T20:28:36.287Z,1.30
2023-01-29T20:31:03.907Z,1.30
2023-01-29T20:33:31.959Z,1.40
2023-01-29T20:36:01.403Z,1.40
2023-01-29T20:38:30.595Z,1.40
2023-01-29T20:41:03.889Z,1.40
2023-01-29T20:43:31.143Z,1.40
2023-01-29T20:45:58.688Z,1.30
2023-01-29T20:48:26.134Z,1.40
2023-01-29T20:50:53.959Z,1.40
2023-01-29T20:53:21.072Z,1.40
2023-01-29T20:55:48.327Z,1.40
2023-01-29T20:58:15.481Z,1.40
2023-01-29T21:00:42.501Z,1.40
2023-01-29T21:03:09.574Z,1.40
2023-01-29T21:05:36.578Z,1.30
2023-01-29T21:08:03.769Z,1.30
2023-01-29T21:10:30.710Z,1.30
2023-01-29T21:12:57.846Z,1.30
2023-01-29T21:15:27.291Z,1.30
2023-01-29T21:17:54.849Z,1.30
2023-01-29T21:20:22.101Z,1.20
2023-01-29T21:22:49.434Z,1.30
2023-01-29T21:25:17.508Z,1.30
2023-01-29T21:27:44.876Z,1.30
2023-01-29T21:30:12.278Z,1.40
2023-01-29T21:32:39.339Z,1.40
2023-01-29T21:35:06.624Z,1.40
2023-01-29T21:37:36.954Z,1.30
2023-01-29T21:40:05.386Z,1.30
2023-01-29T21:42:50.919Z,1.30
2023-01-29T21:45:18.061Z,1.30
2023-01-29T21:47:45.212Z,1.30
2023-01-29T21:50:12.149Z,1.30
2023-01-29T21:52:39.216Z,1.30
2023-01-29T21:55:06.251Z,1.30
2023-01-29T21:57:33.400Z,1.30
2023-01-29T22:00:00.360Z,1.30
2023-01-29T22:02:30.889Z,1.30
2023-01-29T22:05:16.620Z,1.30
2023-01-29T22:07:45.680Z,1.30
2023-01-29T22:10:13.016Z,1.40
2023-01-29T22:12:40.381Z,1.40
2023-01-29T22:15:08.141Z,1.40
2023-01-29T22:17:35.447Z,1.40
2023-01-29T22:20:02.743Z,1.30
2023-01-29T22:22:29.893Z,1.30
2023-01-29T22:24:58.904Z,1.30
2023-01-29T22:27:25.961Z,1.30
2023-01-29T22:29:52.913Z,1.30
2023-01-29T22:32:20.086Z,1.20
2023-01-29T22:34:47.277Z,1.20
2023-01-29T22:37:14.164Z,1.20
2023-01-29T22:39:41.279Z,1.10
2023-01-29T22:42:08.320Z,1.10
2023-01-29T22:44:35.416Z,1.10
2023-01-29T22:47:02.417Z,1.10
2023-01-29T22:49:30.439Z,1.10
2023-01-29T22:52:12.927Z,1.00
2023-01-29T22:54:41.297Z,1.10
2023-01-29T22:57:12.676Z,1.10
2023-01-29T22:59:39.824Z,1.10
2023-01-29T23:02:07.591Z,1.10
2023-01-29T23:04:34.805Z,1.20
2023-01-29T23:07:01.952Z,1.20
2023-01-29T23:09:29.092Z,1.10
2023-01-29T23:11:56.264Z,1.10
2023-01-29T23:14:23.369Z,1.10
2023-01-29T23:16:50.359Z,1.10
2023-01-29T23:19:17.696Z,1.10
2023-01-29T23:21:44.782Z,1.10
2023-01-29T23:24:11.893Z,1.10
2023-01-29T23:26:57.846Z,1.10
2023-01-29T23:29:25.456Z,1.10
2023-01-29T23:31:52.491Z,1.10
2023-01-29T23:34:20.470Z,1.10
2023-01-29T23:36:47.828Z,1.10
2023-01-29T23:39:14.815Z,1.10
2023-01-29T23:41:41.977Z,1.10
2023-01-29T23:44:08.887Z,1.10
2023-01-29T23:46:36.077Z,1.10
2023-01-29T23:49:03.216Z,1.00
2023-01-29T23:51:30.191Z,1.10
2023-01-29T23:53:57.358Z,1.10
2023-01-29T23:56:24.546Z,1.10
2023-01-29T23:58:55.332Z,1.10
